Saguache, Colorado
Current Conditions -  °F | °C
As of 3:12 PM on Thursday 23 Oct 2014 (Local Time) from K04V Reporting Station
Clear Clear  
Wind Chill: 63°   Ceiling: Unl
Heat Index: 63°   Visibility: 10mi
Dew Point: 32°   Wind: 8mph
Humidity: 32%   Direction: 180°S
Pressure: 30.3"   Gusts: NA
Location:  38.09°N, 106.1°W
Report Text: K04V 232112Z AUTO 18007KT 10SM CLR 17/00 A3030 RMK AO2
Loading
Personal Weather Stations






























Interactive Weather Map
Tropical Storm Tracking
New forecast layout! Learn more

10-Day Weather Forecast

Advertisements
Track Severe Weather on mobile